sensor_id;sensor_type;location;lat;lon;timestamp;pressure;altitude;pressure_sealevel;temperature;humidity
76108;BME280;64834;52.516;10.528;2023-02-03T00:01:10;101394.00;;;3.74;97.66
76108;BME280;64834;52.516;10.528;2023-02-03T00:03:35;101396.09;;;3.78;97.81
76108;BME280;64834;52.516;10.528;2023-02-03T00:06:02;101390.75;;;3.77;97.96
76108;BME280;64834;52.516;10.528;2023-02-03T00:08:28;101388.47;;;3.80;98.16
76108;BME280;64834;52.516;10.528;2023-02-03T00:10:54;101390.72;;;3.86;97.89
76108;BME280;64834;52.516;10.528;2023-02-03T00:13:20;101387.66;;;3.90;98.24
76108;BME280;64834;52.516;10.528;2023-02-03T00:15:45;101390.88;;;3.87;98.28
76108;BME280;64834;52.516;10.528;2023-02-03T00:18:11;101370.47;;;3.90;98.67
76108;BME280;64834;52.516;10.528;2023-02-03T00:20:36;101364.91;;;3.96;98.40
76108;BME280;64834;52.516;10.528;2023-02-03T00:23:03;101364.28;;;3.98;98.43
76108;BME280;64834;52.516;10.528;2023-02-03T00:25:29;101370.66;;;4.02;98.74
76108;BME280;64834;52.516;10.528;2023-02-03T00:27:54;101358.44;;;4.10;98.63
76108;BME280;64834;52.516;10.528;2023-02-03T00:30:19;101351.56;;;4.10;98.76
76108;BME280;64834;52.516;10.528;2023-02-03T00:32:45;101339.31;;;4.18;98.77
76108;BME280;64834;52.516;10.528;2023-02-03T00:35:10;101336.72;;;4.18;98.88
76108;BME280;64834;52.516;10.528;2023-02-03T00:37:35;101322.88;;;4.17;98.95
76108;BME280;64834;52.516;10.528;2023-02-03T00:40:01;101331.09;;;4.32;99.03
76108;BME280;64834;52.516;10.528;2023-02-03T00:42:26;101336.69;;;4.37;99.00
76108;BME280;64834;52.516;10.528;2023-02-03T00:44:51;101332.19;;;4.44;98.91
76108;BME280;64834;52.516;10.528;2023-02-03T00:47:17;101319.38;;;4.46;99.29
76108;BME280;64834;52.516;10.528;2023-02-03T00:49:42;101328.00;;;4.55;99.03
76108;BME280;64834;52.516;10.528;2023-02-03T00:52:07;101322.44;;;4.60;99.65
76108;BME280;64834;52.516;10.528;2023-02-03T00:54:33;101318.06;;;4.70;99.68
76108;BME280;64834;52.516;10.528;2023-02-03T00:56:58;101319.69;;;4.78;99.91
76108;BME280;64834;52.516;10.528;2023-02-03T00:59:23;101323.97;;;4.87;99.54
76108;BME280;64834;52.516;10.528;2023-02-03T01:01:49;101317.38;;;5.01;99.91
76108;BME280;64834;52.516;10.528;2023-02-03T01:04:15;101318.59;;;5.05;99.88
76108;BME280;64834;52.516;10.528;2023-02-03T01:06:40;101315.13;;;5.25;100.00
76108;BME280;64834;52.516;10.528;2023-02-03T01:09:06;101315.00;;;5.33;100.00
76108;BME280;64834;52.516;10.528;2023-02-03T01:11:31;101309.94;;;5.45;100.00
76108;BME280;64834;52.516;10.528;2023-02-03T01:13:56;101300.22;;;5.63;99.76
76108;BME280;64834;52.516;10.528;2023-02-03T01:16:26;101299.84;;;5.68;99.63
76108;BME280;64834;52.516;10.528;2023-02-03T01:18:52;101289.69;;;5.82;99.79
76108;BME280;64834;52.516;10.528;2023-02-03T01:21:20;101290.53;;;5.91;99.66
76108;BME280;64834;52.516;10.528;2023-02-03T01:23:46;101288.78;;;6.02;99.37
76108;BME280;64834;52.516;10.528;2023-02-03T01:26:14;101294.09;;;6.13;99.17
76108;BME280;64834;52.516;10.528;2023-02-03T01:28:40;101290.59;;;6.23;98.81
76108;BME280;64834;52.516;10.528;2023-02-03T01:31:14;101296.63;;;6.34;98.26
76108;BME280;64834;52.516;10.528;2023-02-03T01:33:41;101292.44;;;6.46;97.78
76108;BME280;64834;52.516;10.528;2023-02-03T01:36:09;101287.91;;;6.43;97.78
76108;BME280;64834;52.516;10.528;2023-02-03T01:38:35;101280.50;;;6.48;97.30
76108;BME280;64834;52.516;10.528;2023-02-03T01:41:01;101280.31;;;6.57;96.97
76108;BME280;64834;52.516;10.528;2023-02-03T01:43:34;101281.59;;;6.62;96.97
76108;BME280;64834;52.516;10.528;2023-02-03T01:46:28;101278.09;;;6.61;96.87
76108;BME280;64834;52.516;10.528;2023-02-03T01:48:53;101265.88;;;6.60;96.99
76108;BME280;64834;52.516;10.528;2023-02-03T01:51:20;101264.53;;;6.65;96.76
76108;BME280;64834;52.516;10.528;2023-02-03T01:53:46;101262.97;;;6.67;97.01
76108;BME280;64834;52.516;10.528;2023-02-03T01:56:11;101249.50;;;6.61;97.45
76108;BME280;64834;52.516;10.528;2023-02-03T01:58:39;101245.41;;;6.65;97.76
76108;BME280;64834;52.516;10.528;2023-02-03T02:01:06;101253.63;;;6.59;97.62
76108;BME280;64834;52.516;10.528;2023-02-03T02:03:39;101241.13;;;6.65;97.23
76108;BME280;64834;52.516;10.528;2023-02-03T02:06:08;101244.22;;;6.71;97.17
76108;BME280;64834;52.516;10.528;2023-02-03T02:08:35;101240.06;;;6.73;96.35
76108;BME280;64834;52.516;10.528;2023-02-03T02:11:00;101232.38;;;6.75;96.62
76108;BME280;64834;52.516;10.528;2023-02-03T02:13:29;101221.97;;;6.75;96.24
76108;BME280;64834;52.516;10.528;2023-02-03T02:16:18;101235.09;;;6.76;95.85
76108;BME280;64834;52.516;10.528;2023-02-03T02:21:46;101227.41;;;6.78;95.76
76108;BME280;64834;52.516;10.528;2023-02-03T02:27:08;101212.16;;;6.83;95.28
76108;BME280;64834;52.516;10.528;2023-02-03T02:32:29;101220.06;;;6.84;95.19
76108;BME280;64834;52.516;10.528;2023-02-03T02:35:14;101193.31;;;6.85;94.70
76108;BME280;64834;52.516;10.528;2023-02-03T02:37:56;101191.34;;;6.83;94.80
76108;BME280;64834;52.516;10.528;2023-02-03T02:40:48;101161.16;;;6.85;94.43
76108;BME280;64834;52.516;10.528;2023-02-03T02:43:25;101157.66;;;6.84;94.44
76108;BME280;64834;52.516;10.528;2023-02-03T02:46:02;101153.13;;;6.82;94.81
76108;BME280;64834;52.516;10.528;2023-02-03T02:48:41;101132.91;;;6.89;93.81
76108;BME280;64834;52.516;10.528;2023-02-03T02:51:10;101144.09;;;6.88;94.02
76108;BME280;64834;52.516;10.528;2023-02-03T02:53:41;101139.81;;;6.89;93.89
76108;BME280;64834;52.516;10.528;2023-02-03T02:56:08;101143.56;;;6.92;93.35
76108;BME280;64834;52.516;10.528;2023-02-03T02:58:37;101141.50;;;6.88;93.76
76108;BME280;64834;52.516;10.528;2023-02-03T03:01:06;101139.13;;;6.91;93.42
76108;BME280;64834;52.516;10.528;2023-02-03T03:03:31;101142.41;;;6.89;93.30
76108;BME280;64834;52.516;10.528;2023-02-03T03:06:07;101161.78;;;6.92;93.22
76108;BME280;64834;52.516;10.528;2023-02-03T03:08:52;101169.69;;;6.94;93.19
76108;BME280;64834;52.516;10.528;2023-02-03T03:11:19;101104.41;;;6.91;93.15
76108;BME280;64834;52.516;10.528;2023-02-03T03:13:49;101128.28;;;6.97;92.59
76108;BME280;64834;52.516;10.528;2023-02-03T03:16:17;101135.63;;;6.91;92.96
76108;BME280;64834;52.516;10.528;2023-02-03T03:18:48;101097.63;;;6.93;92.67
76108;BME280;64834;52.516;10.528;2023-02-03T03:21:24;101126.72;;;6.99;92.00
76108;BME280;64834;52.516;10.528;2023-02-03T03:23:53;101128.53;;;7.00;92.26
76108;BME280;64834;52.516;10.528;2023-02-03T03:26:29;101135.06;;;6.95;92.25
76108;BME280;64834;52.516;10.528;2023-02-03T03:31:35;101148.00;;;7.05;91.46
76108;BME280;64834;52.516;10.528;2023-02-03T03:34:01;101131.94;;;6.99;91.83
76108;BME280;64834;52.516;10.528;2023-02-03T03:36:32;101137.13;;;6.99;92.01
76108;BME280;64834;52.516;10.528;2023-02-03T03:39:12;101127.63;;;6.99;92.10
76108;BME280;64834;52.516;10.528;2023-02-03T03:41:55;101136.00;;;7.07;91.42
76108;BME280;64834;52.516;10.528;2023-02-03T03:44:26;101116.00;;;7.06;91.14
76108;BME280;64834;52.516;10.528;2023-02-03T03:47:05;101117.91;;;7.09;91.08
76108;BME280;64834;52.516;10.528;2023-02-03T03:49:34;101117.91;;;7.09;91.05
76108;BME280;64834;52.516;10.528;2023-02-03T03:52:03;101113.50;;;7.08;91.16
76108;BME280;64834;52.516;10.528;2023-02-03T03:54:31;101090.44;;;7.12;90.94
76108;BME280;64834;52.516;10.528;2023-02-03T03:57:02;101102.09;;;7.06;91.20
76108;BME280;64834;52.516;10.528;2023-02-03T03:59:33;101095.63;;;7.12;90.58
76108;BME280;64834;52.516;10.528;2023-02-03T04:02:00;101098.25;;;7.12;90.78
76108;BME280;64834;52.516;10.528;2023-02-03T04:04:29;101102.75;;;7.15;90.61
76108;BME280;64834;52.516;10.528;2023-02-03T04:06:56;101089.97;;;7.06;90.95
76108;BME280;64834;52.516;10.528;2023-02-03T04:09:21;101067.47;;;7.07;91.01
76108;BME280;64834;52.516;10.528;2023-02-03T04:11:47;101073.00;;;7.11;90.62
76108;BME280;64834;52.516;10.528;2023-02-03T04:14:29;101079.44;;;7.16;90.07
76108;BME280;64834;52.516;10.528;2023-02-03T04:16:55;101061.13;;;7.15;90.27
76108;BME280;64834;52.516;10.528;2023-02-03T04:19:20;101058.63;;;7.16;89.82
76108;BME280;64834;52.516;10.528;2023-02-03T04:21:45;101035.78;;;7.24;89.05
76108;BME280;64834;52.516;10.528;2023-02-03T04:24:10;101059.53;;;7.28;88.68
76108;BME280;64834;52.516;10.528;2023-02-03T04:26:37;101058.78;;;7.29;88.36
76108;BME280;64834;52.516;10.528;2023-02-03T04:29:02;101061.50;;;7.31;88.03
76108;BME280;64834;52.516;10.528;2023-02-03T04:31:27;101079.81;;;7.33;88.22
76108;BME280;64834;52.516;10.528;2023-02-03T04:33:53;101086.81;;;7.34;88.14
76108;BME280;64834;52.516;10.528;2023-02-03T04:36:18;101062.75;;;7.36;87.90
76108;BME280;64834;52.516;10.528;2023-02-03T04:38:43;101078.22;;;7.35;88.00
76108;BME280;64834;52.516;10.528;2023-02-03T04:41:09;101073.16;;;7.36;87.74
76108;BME280;64834;52.516;10.528;2023-02-03T04:43:34;101081.28;;;7.41;87.47
76108;BME280;64834;52.516;10.528;2023-02-03T04:45:59;101083.13;;;7.42;87.28
76108;BME280;64834;52.516;10.528;2023-02-03T04:48:25;101077.91;;;7.42;87.29
76108;BME280;64834;52.516;10.528;2023-02-03T04:50:50;101076.41;;;7.45;87.01
76108;BME280;64834;52.516;10.528;2023-02-03T04:53:16;101070.41;;;7.35;87.39
76108;BME280;64834;52.516;10.528;2023-02-03T04:55:45;101058.19;;;7.45;86.76
76108;BME280;64834;52.516;10.528;2023-02-03T04:58:10;101039.75;;;7.42;87.05
76108;BME280;64834;52.516;10.528;2023-02-03T05:00:36;101045.72;;;7.53;86.24
76108;BME280;64834;52.516;10.528;2023-02-03T05:03:01;101043.47;;;7.46;86.44
76108;BME280;64834;52.516;10.528;2023-02-03T05:05:26;101041.13;;;7.49;86.54
76108;BME280;64834;52.516;10.528;2023-02-03T05:07:51;101024.69;;;7.50;86.46
76108;BME280;64834;52.516;10.528;2023-02-03T05:10:17;101028.09;;;7.49;86.09
76108;BME280;64834;52.516;10.528;2023-02-03T05:12:42;101013.13;;;7.46;86.69
76108;BME280;64834;52.516;10.528;2023-02-03T05:15:08;101009.06;;;7.50;86.21
76108;BME280;64834;52.516;10.528;2023-02-03T05:17:33;101004.66;;;7.49;86.19
76108;BME280;64834;52.516;10.528;2023-02-03T05:20:03;101001.00;;;7.47;86.32
76108;BME280;64834;52.516;10.528;2023-02-03T05:22:29;101006.66;;;7.53;85.82
76108;BME280;64834;52.516;10.528;2023-02-03T05:24:54;100996.84;;;7.49;85.86
76108;BME280;64834;52.516;10.528;2023-02-03T05:27:19;101009.06;;;7.50;86.04
76108;BME280;64834;52.516;10.528;2023-02-03T05:29:45;100990.94;;;7.51;85.66
76108;BME280;64834;52.516;10.528;2023-02-03T05:32:10;100982.22;;;7.51;85.95
76108;BME280;64834;52.516;10.528;2023-02-03T05:34:35;100965.91;;;7.53;85.79
76108;BME280;64834;52.516;10.528;2023-02-03T05:37:00;100981.66;;;7.55;85.62
76108;BME280;64834;52.516;10.528;2023-02-03T05:39:28;100998.66;;;7.50;86.11
76108;BME280;64834;52.516;10.528;2023-02-03T05:41:53;100986.06;;;7.56;85.54
76108;BME280;64834;52.516;10.528;2023-02-03T05:44:23;100987.78;;;7.55;85.43
76108;BME280;64834;52.516;10.528;2023-02-03T05:46:51;100982.34;;;7.52;85.94
76108;BME280;64834;52.516;10.528;2023-02-03T05:49:17;100979.06;;;7.55;85.91
76108;BME280;64834;52.516;10.528;2023-02-03T05:51:44;100999.56;;;7.50;86.21
76108;BME280;64834;52.516;10.528;2023-02-03T05:54:10;100992.31;;;7.46;86.50
76108;BME280;64834;52.516;10.528;2023-02-03T05:56:36;100974.19;;;7.48;86.10
76108;BME280;64834;52.516;10.528;2023-02-03T05:59:02;100992.09;;;7.43;86.88
76108;BME280;64834;52.516;10.528;2023-02-03T06:01:27;100991.75;;;7.50;86.44
76108;BME280;64834;52.516;10.528;2023-02-03T06:03:53;100971.38;;;7.45;86.78
76108;BME280;64834;52.516;10.528;2023-02-03T06:06:18;100983.94;;;7.39;87.19
76108;BME280;64834;52.516;10.528;2023-02-03T06:08:43;100969.13;;;7.38;87.16
76108;BME280;64834;52.516;10.528;2023-02-03T06:11:09;100971.03;;;7.40;87.32
76108;BME280;64834;52.516;10.528;2023-02-03T06:13:35;100962.66;;;7.44;86.89
76108;BME280;64834;52.516;10.528;2023-02-03T06:16:00;100959.72;;;7.40;87.33
76108;BME280;64834;52.516;10.528;2023-02-03T06:18:25;100971.81;;;7.39;87.42
76108;BME280;64834;52.516;10.528;2023-02-03T06:20:51;100956.66;;;7.34;87.70
76108;BME280;64834;52.516;10.528;2023-02-03T06:23:16;100976.03;;;7.37;87.74
76108;BME280;64834;52.516;10.528;2023-02-03T06:25:46;100974.31;;;7.38;87.92
76108;BME280;64834;52.516;10.528;2023-02-03T06:28:12;100975.13;;;7.37;88.00
76108;BME280;64834;52.516;10.528;2023-02-03T06:30:38;100955.41;;;7.40;87.63
76108;BME280;64834;52.516;10.528;2023-02-03T06:33:03;100963.03;;;7.25;89.49
76108;BME280;64834;52.516;10.528;2023-02-03T06:35:28;100941.50;;;7.28;89.16
76108;BME280;64834;52.516;10.528;2023-02-03T06:37:53;100952.50;;;7.24;89.62
76108;BME280;64834;52.516;10.528;2023-02-03T06:40:19;100938.16;;;7.17;90.67
76108;BME280;64834;52.516;10.528;2023-02-03T06:42:48;100934.41;;;7.14;91.05
76108;BME280;64834;52.516;10.528;2023-02-03T06:45:14;100928.06;;;7.10;91.28
76108;BME280;64834;52.516;10.528;2023-02-03T06:47:41;100927.94;;;7.09;91.43
76108;BME280;64834;52.516;10.528;2023-02-03T06:50:07;100932.94;;;7.06;91.86
76108;BME280;64834;52.516;10.528;2023-02-03T06:52:32;100909.53;;;7.06;91.93
76108;BME280;64834;52.516;10.528;2023-02-03T06:54:58;100920.38;;;7.12;91.08
76108;BME280;64834;52.516;10.528;2023-02-03T06:57:23;100896.16;;;7.13;91.44
76108;BME280;64834;52.516;10.528;2023-02-03T06:59:48;100892.44;;;7.09;91.29
76108;BME280;64834;52.516;10.528;2023-02-03T07:02:14;100914.59;;;7.16;90.81
76108;BME280;64834;52.516;10.528;2023-02-03T07:04:39;100880.19;;;7.20;90.38
76108;BME280;64834;52.516;10.528;2023-02-03T07:07:05;100874.19;;;7.21;90.41
76108;BME280;64834;52.516;10.528;2023-02-03T07:09:30;100872.50;;;7.21;90.37
76108;BME280;64834;52.516;10.528;2023-02-03T07:11:55;100878.41;;;7.19;90.54
76108;BME280;64834;52.516;10.528;2023-02-03T07:14:21;100864.69;;;7.21;90.69
76108;BME280;64834;52.516;10.528;2023-02-03T07:16:46;100880.19;;;7.20;90.94
76108;BME280;64834;52.516;10.528;2023-02-03T07:19:11;100882.00;;;7.21;90.57
76108;BME280;64834;52.516;10.528;2023-02-03T07:21:37;100880.91;;;7.17;91.45
76108;BME280;64834;52.516;10.528;2023-02-03T07:24:02;100907.47;;;7.13;91.59
76108;BME280;64834;52.516;10.528;2023-02-03T07:26:27;100896.38;;;7.16;91.81
76108;BME280;64834;52.516;10.528;2023-02-03T07:28:53;100912.13;;;7.17;91.91
76108;BME280;64834;52.516;10.528;2023-02-03T07:31:18;100902.38;;;7.15;92.01
76108;BME280;64834;52.516;10.528;2023-02-03T07:33:44;100903.41;;;7.17;91.53
76108;BME280;64834;52.516;10.528;2023-02-03T07:36:09;100902.81;;;7.21;91.45
76108;BME280;64834;52.516;10.528;2023-02-03T07:38:35;100888.69;;;7.17;92.16
76108;BME280;64834;52.516;10.528;2023-02-03T07:41:02;100905.22;;;7.18;91.82
76108;BME280;64834;52.516;10.528;2023-02-03T07:43:27;100881.78;;;7.18;92.21
76108;BME280;64834;52.516;10.528;2023-02-03T07:45:53;100884.16;;;7.15;92.44
76108;BME280;64834;52.516;10.528;2023-02-03T07:48:18;100904.78;;;7.12;93.27
76108;BME280;64834;52.516;10.528;2023-02-03T07:50:43;100891.88;;;7.01;93.74
76108;BME280;64834;52.516;10.528;2023-02-03T07:53:09;100885.78;;;7.01;94.12
76108;BME280;64834;52.516;10.528;2023-02-03T07:55:36;100871.50;;;7.08;93.72
76108;BME280;64834;52.516;10.528;2023-02-03T07:58:02;100893.47;;;7.11;93.70
76108;BME280;64834;52.516;10.528;2023-02-03T08:00:27;100862.25;;;7.11;93.80
76108;BME280;64834;52.516;10.528;2023-02-03T08:02:52;100887.22;;;7.09;93.49
76108;BME280;64834;52.516;10.528;2023-02-03T08:05:18;100861.44;;;7.12;93.45
76108;BME280;64834;52.516;10.528;2023-02-03T08:07:44;100884.16;;;7.15;93.38
76108;BME280;64834;52.516;10.528;2023-02-03T08:10:11;100882.47;;;7.15;93.43
76108;BME280;64834;52.516;10.528;2023-02-03T08:12:37;100900.00;;;7.18;93.14
76108;BME280;64834;52.516;10.528;2023-02-03T08:15:03;100875.09;;;7.21;93.09
76108;BME280;64834;52.516;10.528;2023-02-03T08:17:28;100884.50;;;7.19;92.97
76108;BME280;64834;52.516;10.528;2023-02-03T08:19:54;100883.56;;;7.30;92.51
76108;BME280;64834;52.516;10.528;2023-02-03T08:22:19;100904.97;;;7.26;92.80
76108;BME280;64834;52.516;10.528;2023-02-03T08:24:45;100873.97;;;7.29;92.25
76108;BME280;64834;52.516;10.528;2023-02-03T08:27:12;100884.13;;;7.26;92.82
76108;BME280;64834;52.516;10.528;2023-02-03T08:29:38;100874.72;;;7.28;92.68
76108;BME280;64834;52.516;10.528;2023-02-03T08:32:03;100854.25;;;7.33;92.42
76108;BME280;64834;52.516;10.528;2023-02-03T08:34:29;100825.13;;;7.39;91.91
76108;BME280;64834;52.516;10.528;2023-02-03T08:36:54;100866.22;;;7.43;91.57
76108;BME280;64834;52.516;10.528;2023-02-03T08:39:19;100853.31;;;7.44;91.62
76108;BME280;64834;52.516;10.528;2023-02-03T08:41:45;100866.97;;;7.53;90.95
76108;BME280;64834;52.516;10.528;2023-02-03T08:44:10;100862.13;;;7.46;91.53
76108;BME280;64834;52.516;10.528;2023-02-03T08:46:35;100869.72;;;7.43;92.21
76108;BME280;64834;52.516;10.528;2023-02-03T08:49:01;100839.00;;;7.51;91.66
76108;BME280;64834;52.516;10.528;2023-02-03T08:51:27;100844.31;;;7.52;91.46
76108;BME280;64834;52.516;10.528;2023-02-03T08:53:53;100834.94;;;7.54;90.82
76108;BME280;64834;52.516;10.528;2023-02-03T08:56:18;100838.88;;;7.61;90.63
76108;BME280;64834;52.516;10.528;2023-02-03T08:58:43;100844.28;;;7.64;90.76
76108;BME280;64834;52.516;10.528;2023-02-03T09:01:14;100856.44;;;7.77;90.00
76108;BME280;64834;52.516;10.528;2023-02-03T09:03:39;100853.75;;;7.75;89.82
76108;BME280;64834;52.516;10.528;2023-02-03T09:06:06;100854.22;;;7.70;90.88
76108;BME280;64834;52.516;10.528;2023-02-03T09:08:32;100843.56;;;7.67;91.07
76108;BME280;64834;52.516;10.528;2023-02-03T09:10:57;100860.91;;;7.66;90.93
76108;BME280;64834;52.516;10.528;2023-02-03T09:13:22;100860.13;;;7.67;90.88
76108;BME280;64834;52.516;10.528;2023-02-03T09:15:48;100850.19;;;7.62;91.68
76108;BME280;64834;52.516;10.528;2023-02-03T09:18:13;100836.47;;;7.64;91.36
76108;BME280;64834;52.516;10.528;2023-02-03T09:20:38;100838.88;;;7.61;91.73
76108;BME280;64834;52.516;10.528;2023-02-03T09:23:04;100848.09;;;7.69;91.41
76108;BME280;64834;52.516;10.528;2023-02-03T09:25:29;100855.69;;;7.66;91.78
76108;BME280;64834;52.516;10.528;2023-02-03T09:27:54;100862.50;;;7.64;92.17
76108;BME280;64834;52.516;10.528;2023-02-03T09:30:20;100864.84;;;7.73;91.26
76108;BME280;64834;52.516;10.528;2023-02-03T09:32:45;100851.13;;;7.75;90.98
76108;BME280;64834;52.516;10.528;2023-02-03T09:35:13;100823.16;;;7.73;91.54
76108;BME280;64834;52.516;10.528;2023-02-03T09:37:38;100833.47;;;7.71;91.59
76108;BME280;64834;52.516;10.528;2023-02-03T09:40:04;100854.69;;;7.64;92.47
76108;BME280;64834;52.516;10.528;2023-02-03T09:43:01;100840.28;;;7.69;92.19
76108;BME280;64834;52.516;10.528;2023-02-03T09:45:29;100841.78;;;7.66;92.51
76108;BME280;64834;52.516;10.528;2023-02-03T09:48:02;100842.56;;;7.65;92.99
76108;BME280;64834;52.516;10.528;2023-02-03T09:50:32;100844.28;;;7.64;92.92
76108;BME280;64834;52.516;10.528;2023-02-03T09:53:04;100858.28;;;7.66;92.77
76108;BME280;64834;52.516;10.528;2023-02-03T09:55:38;100868.63;;;7.65;93.31
76108;BME280;64834;52.516;10.528;2023-02-03T09:58:16;100844.69;;;7.70;92.65
76108;BME280;64834;52.516;10.528;2023-02-03T10:01:02;100863.75;;;7.69;92.64
76108;BME280;64834;52.516;10.528;2023-02-03T10:03:36;100865.00;;;7.63;93.26
76108;BME280;64834;52.516;10.528;2023-02-03T10:12:08;100868.84;;;7.68;92.74
76108;BME280;64834;52.516;10.528;2023-02-03T10:22:44;100934.34;;;7.49;95.01
76108;BME280;64834;52.516;10.528;2023-02-03T10:27:37;100980.00;;;7.20;86.29
76108;BME280;64834;52.516;10.528;2023-02-03T10:30:23;100927.19;;;6.98;84.30
76108;BME280;64834;52.516;10.528;2023-02-03T10:32:56;100945.75;;;6.79;84.18
76108;BME280;64834;52.516;10.528;2023-02-03T10:35:32;100938.81;;;6.68;83.37
76108;BME280;64834;52.516;10.528;2023-02-03T10:38:00;100916.88;;;6.64;83.73
76108;BME280;64834;52.516;10.528;2023-02-03T10:40:26;100925.03;;;6.69;83.36
76108;BME280;64834;52.516;10.528;2023-02-03T10:42:53;100934.19;;;6.64;84.84
76108;BME280;64834;52.516;10.528;2023-02-03T10:45:37;100922.06;;;6.64;84.92
76108;BME280;64834;52.516;10.528;2023-02-03T10:48:05;100898.69;;;6.76;83.73
76108;BME280;64834;52.516;10.528;2023-02-03T10:50:37;100908.19;;;6.75;83.32
76108;BME280;64834;52.516;10.528;2023-02-03T10:53:22;100935.88;;;6.75;83.47
76108;BME280;64834;52.516;10.528;2023-02-03T10:56:09;100945.03;;;6.82;82.87
76108;BME280;64834;52.516;10.528;2023-02-03T10:58:37;100956.69;;;6.75;85.56
76108;BME280;64834;52.516;10.528;2023-02-03T11:03:30;100951.16;;;6.82;84.45
76108;BME280;64834;52.516;10.528;2023-02-03T11:06:16;100961.31;;;6.91;84.28
76108;BME280;64834;52.516;10.528;2023-02-03T11:08:50;100980.88;;;6.97;83.20
76108;BME280;64834;52.516;10.528;2023-02-03T11:11:25;100946.50;;;7.01;82.76
76108;BME280;64834;52.516;10.528;2023-02-03T11:14:09;100969.47;;;7.07;81.63
76108;BME280;64834;52.516;10.528;2023-02-03T11:16:36;100983.28;;;7.06;83.25
76108;BME280;64834;52.516;10.528;2023-02-03T11:19:17;100974.47;;;7.04;84.72
76108;BME280;64834;52.516;10.528;2023-02-03T11:21:46;100951.38;;;7.09;82.72
76108;BME280;64834;52.516;10.528;2023-02-03T11:24:27;100967.22;;;7.12;82.89
76108;BME280;64834;52.516;10.528;2023-02-03T11:26:57;100975.13;;;7.13;82.79
76108;BME280;64834;52.516;10.528;2023-02-03T11:29:35;100987.91;;;7.10;84.01
76108;BME280;64834;52.516;10.528;2023-02-03T11:32:21;100984.09;;;7.17;82.97
76108;BME280;64834;52.516;10.528;2023-02-03T11:35:03;100989.50;;;7.20;83.10
76108;BME280;64834;52.516;10.528;2023-02-03T11:37:42;101000.16;;;7.23;82.63
76108;BME280;64834;52.516;10.528;2023-02-03T11:42:37;101005.00;;;7.30;80.91
76108;BME280;64834;52.516;10.528;2023-02-03T11:45:24;100994.00;;;7.34;80.21
76108;BME280;64834;52.516;10.528;2023-02-03T11:47:55;100990.50;;;7.34;80.14
76108;BME280;64834;52.516;10.528;2023-02-03T12:02:33;101013.69;;;7.54;79.01
76108;BME280;64834;52.516;10.528;2023-02-03T12:05:37;101020.72;;;7.55;78.60
76108;BME280;64834;52.516;10.528;2023-02-03T12:16:09;101022.38;;;7.78;77.39
76108;BME280;64834;52.516;10.528;2023-02-03T12:21:37;101041.16;;;7.85;76.68
76108;BME280;64834;52.516;10.528;2023-02-03T12:24:33;101034.91;;;7.95;73.61
76108;BME280;64834;52.516;10.528;2023-02-03T12:27:13;101056.66;;;7.96;73.78
76108;BME280;64834;52.516;10.528;2023-02-03T12:29:43;101039.22;;;7.95;72.76
76108;BME280;64834;52.516;10.528;2023-02-03T12:32:42;101051.53;;;7.97;70.90
76108;BME280;64834;52.516;10.528;2023-02-03T12:35:20;101037.84;;;8.00;68.82
76108;BME280;64834;52.516;10.528;2023-02-03T12:37:58;101004.06;;;8.01;67.86
76108;BME280;64834;52.516;10.528;2023-02-03T12:40:42;101050.97;;;8.01;68.46
76108;BME280;64834;52.516;10.528;2023-02-03T12:45:51;101051.44;;;7.96;69.84
76108;BME280;64834;52.516;10.528;2023-02-03T12:48:21;101052.44;;;7.98;68.13
76108;BME280;64834;52.516;10.528;2023-02-03T12:50:51;101059.59;;;8.00;68.37
76108;BME280;64834;52.516;10.528;2023-02-03T12:53:30;101032.84;;;8.03;67.22
76108;BME280;64834;52.516;10.528;2023-02-03T12:56:05;101075.13;;;7.99;67.02
76108;BME280;64834;52.516;10.528;2023-02-03T12:58:36;101080.44;;;8.00;67.55
76108;BME280;64834;52.516;10.528;2023-02-03T13:01:12;101057.00;;;8.00;65.67
76108;BME280;64834;52.516;10.528;2023-02-03T13:04:00;101085.84;;;8.03;66.15
76108;BME280;64834;52.516;10.528;2023-02-03T13:06:53;101085.56;;;7.99;67.60
76108;BME280;64834;52.516;10.528;2023-02-03T13:09:24;101083.41;;;7.93;68.55
76108;BME280;64834;52.516;10.528;2023-02-03T13:11:57;101067.78;;;7.81;69.21
76108;BME280;64834;52.516;10.528;2023-02-03T13:16:54;101061.56;;;7.79;67.75
76108;BME280;64834;52.516;10.528;2023-02-03T13:19:29;101065.19;;;7.81;67.65
76108;BME280;64834;52.516;10.528;2023-02-03T13:22:00;101069.50;;;7.81;67.62
76108;BME280;64834;52.516;10.528;2023-02-03T13:24:27;101058.16;;;7.80;67.50
76108;BME280;64834;52.516;10.528;2023-02-03T13:27:17;101065.19;;;7.81;67.23
76108;BME280;64834;52.516;10.528;2023-02-03T13:29:56;101053.06;;;7.82;65.74
76108;BME280;64834;52.516;10.528;2023-02-03T13:32:48;101040.38;;;7.87;63.84
76108;BME280;64834;52.516;10.528;2023-02-03T13:35:34;101062.59;;;7.81;64.53
76108;BME280;64834;52.516;10.528;2023-02-03T13:38:13;101059.19;;;7.82;62.73
76108;BME280;64834;52.516;10.528;2023-02-03T13:40:52;101068.34;;;7.77;61.87
76108;BME280;64834;52.516;10.528;2023-02-03T13:43:28;101074.59;;;7.79;62.31
76108;BME280;64834;52.516;10.528;2023-02-03T13:45:55;101090.09;;;7.78;61.24
76108;BME280;64834;52.516;10.528;2023-02-03T13:48:27;101093.97;;;7.71;62.49
76108;BME280;64834;52.516;10.528;2023-02-03T13:51:15;101080.03;;;7.71;62.26
76108;BME280;64834;52.516;10.528;2023-02-03T13:53:43;101109.81;;;7.74;61.96
76108;BME280;64834;52.516;10.528;2023-02-03T13:56:19;101098.16;;;7.69;62.99
76108;BME280;64834;52.516;10.528;2023-02-03T13:58:59;101091.25;;;7.70;62.94
76108;BME280;64834;52.516;10.528;2023-02-03T14:01:43;101103.81;;;7.64;64.79
76108;BME280;64834;52.516;10.528;2023-02-03T14:12:18;101112.09;;;7.58;65.72